Time;durP1;ratioP1;P1;durP2;ratioP2;P2;SDS_P1;SDS_P2;PMS_P1;PMS_P2;Temp;Humidity;BMP_temperature;BMP_pressure;BME280_temperature;BME280_humidity;BME280_pressure;Samples;Min_cycle;Max_cycle;Signal;HPM_P1;HPM_P2
2024/03/01 00:01:44;;;;;;;18.90;7.30;;;13.40;75.40;;;;;;4994106;28;114220;-54
2024/03/01 00:04:10;;;;;;;20.15;7.30;;;13.30;75.90;;;;;;4996225;28;112840;-52
2024/03/01 00:06:36;;;;;;;21.15;7.38;;;13.30;76.10;;;;;;4987503;28;113158;-52
2024/03/01 00:09:02;;;;;;;19.90;7.78;;;13.30;76.40;;;;;;4990020;28;113781;-51
2024/03/01 00:11:28;;;;;;;20.60;8.13;;;13.20;76.80;;;;;;5001795;28;112979;-51
2024/03/01 00:13:54;;;;;;;18.40;7.38;;;13.10;77.50;;;;;;4990595;28;112737;-50
2024/03/01 00:16:20;;;;;;;19.48;7.88;;;13.00;78.20;;;;;;4989821;28;113724;-51
2024/03/01 00:18:45;;;;;;;13.82;7.95;;;13.00;78.20;;;;;;4976985;28;112670;-51
2024/03/01 00:21:17;;;;;;;15.48;7.93;;;13.00;78.40;;;;;;4992581;28;112846;-64
2024/03/01 00:23:43;;;;;;;;;;;13.00;78.50;;;;;;4990989;28;113170;-54
2024/03/01 00:26:09;;;;;;;22.02;8.35;;;13.10;78.30;;;;;;4990781;28;114458;-51
2024/03/01 00:28:35;;;;;;;23.30;9.15;;;13.00;79.00;;;;;;4990616;28;112950;-51
2024/03/01 00:31:04;;;;;;;28.00;9.27;;;12.90;79.20;;;;;;4992458;28;112992;-52
2024/03/01 00:33:31;;;;;;;16.65;9.02;;;12.90;78.80;;;;;;4998780;28;112632;-51
2024/03/01 00:35:57;;;;;;;23.70;10.13;;;12.90;78.90;;;;;;4991470;28;114529;-51
2024/03/01 00:38:22;;;;;;;24.40;9.13;;;12.90;79.30;;;;;;4994164;28;112812;-51
2024/03/01 00:40:48;;;;;;;18.17;8.45;;;12.90;79.00;;;;;;4995488;28;112734;-52
2024/03/01 00:43:14;;;;;;;19.80;9.68;;;12.90;79.60;;;;;;4996443;28;114634;-51
2024/03/01 00:45:40;;;;;;;19.13;8.85;;;12.90;79.30;;;;;;4990647;28;113134;-51
2024/03/01 00:48:12;;;;;;;22.02;9.48;;;12.90;79.60;;;;;;4975361;28;114171;-51
2024/03/01 00:50:38;;;;;;;23.92;10.00;;;12.90;79.60;;;;;;4990000;28;112620;-51
2024/03/01 00:53:04;;;;;;;22.98;10.02;;;12.90;79.70;;;;;;4992343;28;113042;-51
2024/03/01 00:55:31;;;;;;;16.50;8.60;;;12.90;80.40;;;;;;4997238;28;114556;-51
2024/03/01 00:57:57;;;;;;;23.77;9.38;;;12.90;80.10;;;;;;4992767;28;113112;-53
2024/03/01 01:00:22;;;;;;;24.23;10.05;;;12.90;79.80;;;;;;4999610;28;112741;-53
2024/03/01 01:02:48;;;;;;;20.40;8.93;;;12.90;79.90;;;;;;5000461;28;112854;-51
2024/03/01 01:05:14;;;;;;;23.58;9.40;;;12.90;79.70;;;;;;4989087;28;114393;-51
2024/03/01 01:07:40;;;;;;;19.88;9.23;;;12.90;79.50;;;;;;5004466;28;114061;-51
2024/03/01 01:10:07;;;;;;;27.80;10.13;;;12.90;79.80;;;;;;4992564;28;112657;-50
2024/03/01 01:12:33;;;;;;;26.92;9.77;;;12.90;80.30;;;;;;4999354;28;113617;-51
2024/03/01 01:14:59;;;;;;;23.58;9.77;;;12.80;80.50;;;;;;4992529;28;114737;-51
2024/03/01 01:17:26;;;;;;;23.35;9.10;;;12.80;80.70;;;;;;4983417;28;112851;-52
2024/03/01 01:19:55;;;;;;;18.88;9.82;;;12.80;79.90;;;;;;4984380;28;112554;-51
2024/03/01 01:22:20;;;;;;;20.20;9.88;;;12.80;80.30;;;;;;4991255;28;112784;-50
2024/03/01 01:24:46;;;;;;;17.67;9.50;;;12.80;80.60;;;;;;4985280;28;114597;-50
2024/03/01 01:27:12;;;;;;;22.30;9.95;;;12.80;80.80;;;;;;4990020;28;112592;-51
2024/03/01 01:29:38;;;;;;;20.98;9.77;;;12.80;80.70;;;;;;4979565;28;112719;-51
2024/03/01 01:32:04;;;;;;;18.20;9.40;;;12.70;81.20;;;;;;4989833;28;112910;-50
2024/03/01 01:34:29;;;;;;;21.77;9.90;;;12.70;81.20;;;;;;4982726;28;113147;-51
2024/03/01 01:36:55;;;;;;;23.00;9.88;;;12.70;82.00;;;;;;4988886;28;112546;-51
2024/03/01 01:39:21;;;;;;;23.40;10.48;;;12.70;82.30;;;;;;4992221;28;112625;-50
2024/03/01 01:41:47;;;;;;;22.08;9.85;;;12.70;82.20;;;;;;4990893;28;112664;-52
2024/03/01 01:44:13;;;;;;;15.52;9.32;;;12.60;82.10;;;;;;4989303;28;114574;-51
2024/03/01 01:46:38;;;;;;;23.33;10.52;;;12.60;82.50;;;;;;4988406;28;112577;-51
2024/03/01 01:49:05;;;;;;;21.35;10.48;;;12.50;83.50;;;;;;4987196;28;112876;-51
2024/03/01 01:51:31;;;;;;;24.42;10.13;;;12.50;83.70;;;;;;4988678;28;113208;-50
2024/03/01 01:53:58;;;;;;;23.23;10.57;;;12.50;83.60;;;;;;4999927;28;113405;-51
2024/03/01 01:56:24;;;;;;;20.55;10.43;;;12.50;84.00;;;;;;4989162;28;112833;-51
2024/03/01 01:58:51;;;;;;;25.23;11.32;;;12.40;83.70;;;;;;4983228;28;112899;-52
2024/03/01 02:01:18;;;;;;;21.05;10.55;;;12.40;83.60;;;;;;4988310;28;113103;-51
2024/03/01 02:03:44;;;;;;;22.40;11.27;;;12.40;83.90;;;;;;4991367;28;113099;-50
2024/03/01 02:06:11;;;;;;;20.38;10.82;;;12.40;84.30;;;;;;4987319;28;113319;-51
2024/03/01 02:08:40;;;;;;;19.60;10.63;;;12.40;84.40;;;;;;4988154;28;112583;-52
2024/03/01 02:11:06;;;;;;;21.33;11.07;;;12.40;84.20;;;;;;4988429;28;112734;-52
2024/03/01 02:13:32;;;;;;;23.63;11.40;;;12.40;84.10;;;;;;4991855;28;114305;-50
2024/03/01 02:15:59;;;;;;;25.75;11.75;;;12.40;84.10;;;;;;4994628;28;112699;-51
2024/03/01 02:18:25;;;;;;;20.98;11.93;;;12.40;84.30;;;;;;4997727;28;113338;-52
2024/03/01 02:21:10;;;;;;;22.77;11.90;;;12.30;84.40;;;;;;4986686;28;112688;-51
2024/03/01 02:23:37;;;;;;;24.63;11.32;;;12.30;84.70;;;;;;4987304;28;114520;-51
2024/03/01 02:26:04;;;;;;;24.48;11.90;;;12.30;84.70;;;;;;4987872;28;113030;-51
2024/03/01 02:28:30;;;;;;;25.35;12.02;;;12.30;84.50;;;;;;4989476;28;112583;-51
2024/03/01 02:30:56;;;;;;;21.17;12.55;;;12.20;84.70;;;;;;4998845;28;113012;-51
2024/03/01 02:33:22;;;;;;;26.00;12.23;;;12.30;84.80;;;;;;4987785;28;113299;-51
2024/03/01 02:35:48;;;;;;;24.65;12.27;;;12.30;84.60;;;;;;4990702;28;113008;-51
2024/03/01 02:38:14;;;;;;;18.15;11.18;;;12.30;84.60;;;;;;4987886;28;112662;-52
2024/03/01 02:40:40;;;;;;;22.58;11.88;;;12.10;84.50;;;;;;4996877;28;112999;-55
2024/03/01 02:43:06;;;;;;;22.83;12.55;;;12.20;84.90;;;;;;4996863;28;113254;-51
2024/03/01 02:45:36;;;;;;;27.58;13.02;;;12.20;84.90;;;;;;4987020;28;115004;-50
2024/03/01 02:48:03;;;;;;;27.95;12.55;;;12.20;84.80;;;;;;4997088;28;112903;-54
2024/03/01 02:50:28;;;;;;;28.42;11.90;;;12.20;84.60;;;;;;4987267;28;112722;-51
2024/03/01 02:52:54;;;;;;;23.33;11.90;;;12.20;84.70;;;;;;4987866;28;113506;-51
2024/03/01 02:55:20;;;;;;;25.88;11.98;;;12.10;84.70;;;;;;4987977;28;113444;-51
2024/03/01 02:57:50;;;;;;;21.48;12.00;;;12.00;84.80;;;;;;4989791;28;112844;-51
2024/03/01 03:00:16;;;;;;;26.73;12.80;;;12.00;85.10;;;;;;4989941;28;112778;-51
2024/03/01 03:02:42;;;;;;;29.45;12.55;;;12.00;85.20;;;;;;4988115;28;113421;-52
2024/03/01 03:05:09;;;;;;;23.00;12.90;;;12.10;85.10;;;;;;4990123;28;112819;-53
2024/03/01 03:07:34;;;;;;;27.90;12.65;;;12.00;84.80;;;;;;4996709;28;112991;-51
2024/03/01 03:10:00;;;;;;;26.55;12.18;;;12.10;84.70;;;;;;4987564;28;112858;-51
2024/03/01 03:12:26;;;;;;;21.40;11.45;;;12.10;84.80;;;;;;4988615;28;113188;-51
2024/03/01 03:14:52;;;;;;;25.40;11.25;;;12.10;84.60;;;;;;4986273;28;112607;-52
2024/03/01 03:17:17;;;;;;;23.10;11.48;;;12.20;84.70;;;;;;4992496;28;112609;-51
2024/03/01 03:19:43;;;;;;;22.58;12.43;;;12.20;84.40;;;;;;4990526;28;112882;-52
2024/03/01 03:22:09;;;;;;;22.17;12.23;;;12.20;84.30;;;;;;4987590;28;113651;-53
2024/03/01 03:24:38;;;;;;;22.98;12.30;;;12.10;84.40;;;;;;4997746;28;113674;-52
2024/03/01 03:27:03;;;;;;;23.73;11.68;;;12.20;84.80;;;;;;4986976;28;113021;-52
2024/03/01 03:29:30;;;;;;;23.95;12.15;;;12.20;84.30;;;;;;4988087;28;112898;-51
2024/03/01 03:31:56;;;;;;;25.00;11.75;;;12.10;84.30;;;;;;4983989;28;113233;-50
2024/03/01 03:34:21;;;;;;;21.52;12.05;;;12.10;84.70;;;;;;4992221;28;113792;-51
2024/03/01 03:36:47;;;;;;;20.48;11.57;;;12.10;84.70;;;;;;4992620;28;112928;-51
2024/03/01 03:39:14;;;;;;;24.67;12.23;;;12.00;84.40;;;;;;4994053;28;112833;-51
2024/03/01 03:41:41;;;;;;;25.92;12.05;;;12.00;84.60;;;;;;4992323;28;113261;-51
2024/03/01 03:44:06;;;;;;;19.13;12.50;;;12.00;84.90;;;;;;4987725;28;113314;-52
2024/03/01 03:46:32;;;;;;;24.80;13.02;;;11.90;85.00;;;;;;4994456;28;112800;-51
2024/03/01 03:48:58;;;;;;;23.02;13.00;;;11.90;85.30;;;;;;5001037;28;112620;-51
2024/03/01 03:51:26;;;;;;;21.88;12.50;;;11.90;85.30;;;;;;4989386;28;113245;-51
2024/03/01 03:53:52;;;;;;;23.30;13.02;;;11.90;85.60;;;;;;4990203;28;113837;-51
2024/03/01 03:56:18;;;;;;;20.30;12.90;;;11.90;85.40;;;;;;4991351;28;112576;-52
2024/03/01 03:58:43;;;;;;;24.55;12.70;;;12.00;85.20;;;;;;4991551;28;113191;-50
2024/03/01 04:01:09;;;;;;;21.80;12.43;;;12.00;84.90;;;;;;4989994;28;113677;-50
2024/03/01 04:03:35;;;;;;;28.77;12.88;;;12.00;85.20;;;;;;4989454;28;114557;-51
2024/03/01 04:06:00;;;;;;;25.00;13.23;;;11.90;85.10;;;;;;4989671;28;112866;-51
2024/03/01 04:08:26;;;;;;;23.02;13.25;;;12.10;84.90;;;;;;4998661;28;112662;-51
2024/03/01 04:10:52;;;;;;;24.75;12.80;;;12.00;84.80;;;;;;4995171;28;113288;-50
2024/03/01 04:13:17;;;;;;;22.77;13.63;;;11.90;84.80;;;;;;4988873;28;113734;-50
2024/03/01 04:15:43;;;;;;;24.42;13.23;;;11.90;85.30;;;;;;4993133;28;113381;-52
2024/03/01 04:18:10;;;;;;;20.73;12.80;;;11.90;85.00;;;;;;4993336;28;112689;-51
2024/03/01 04:20:36;;;;;;;22.88;12.57;;;11.90;84.90;;;;;;4991409;28;113186;-52
2024/03/01 04:23:04;;;;;;;27.83;13.35;;;11.90;85.00;;;;;;4993742;28;115194;-51
2024/03/01 04:25:34;;;;;;;22.00;12.38;;;11.80;85.30;;;;;;5022221;27;112880;-51
2024/03/01 04:28:00;;;;;;;24.73;12.43;;;11.80;85.30;;;;;;4994219;28;112735;-52
2024/03/01 04:30:26;;;;;;;25.63;12.60;;;11.80;85.40;;;;;;4989902;28;113240;-51
2024/03/01 04:32:52;;;;;;;18.13;11.63;;;11.90;85.20;;;;;;4980001;28;112824;-52
2024/03/01 04:35:17;;;;;;;22.70;10.88;;;11.80;85.20;;;;;;4986660;28;112665;-51
2024/03/01 04:37:44;;;;;;;21.95;11.80;;;11.90;85.00;;;;;;4989721;28;112955;-51
2024/03/01 04:40:11;;;;;;;26.77;10.60;;;11.80;85.20;;;;;;4992661;28;113265;-51
2024/03/01 04:42:41;;;;;;;26.00;11.30;;;11.90;85.10;;;;;;4981069;28;112594;-50
2024/03/01 04:45:07;;;;;;;24.30;10.65;;;11.90;85.00;;;;;;4989434;28;112651;-51
2024/03/01 04:47:33;;;;;;;27.35;10.88;;;11.90;84.80;;;;;;4989216;28;112789;-50
2024/03/01 04:49:59;;;;;;;25.63;11.68;;;11.90;84.90;;;;;;4992340;28;113337;-51
2024/03/01 04:52:26;;;;;;;23.63;10.50;;;11.90;84.70;;;;;;4991382;28;112633;-51
2024/03/01 04:54:52;;;;;;;19.02;10.63;;;11.80;84.90;;;;;;4998733;28;112645;-51
2024/03/01 04:57:18;;;;;;;26.65;9.88;;;11.90;84.80;;;;;;4989492;28;112735;-54
2024/03/01 04:59:44;;;;;;;25.50;10.95;;;11.90;85.10;;;;;;4991354;28;113135;-52
2024/03/01 05:02:09;;;;;;;26.00;10.40;;;11.80;84.40;;;;;;4989341;28;112652;-50
2024/03/01 05:04:35;;;;;;;28.17;10.20;;;11.80;84.80;;;;;;4990118;28;112654;-51
2024/03/01 05:07:02;;;;;;;16.05;9.50;;;11.80;84.90;;;;;;4989073;28;112801;-53
2024/03/01 05:09:28;;;;;;;26.65;10.13;;;11.90;84.80;;;;;;5000144;28;114617;-50
2024/03/01 05:11:53;;;;;;;18.70;9.95;;;11.90;84.80;;;;;;4993858;28;114288;-51
2024/03/01 05:14:21;;;;;;;23.52;10.82;;;11.80;84.90;;;;;;4992355;28;113284;-52
2024/03/01 05:16:47;;;;;;;20.23;10.98;;;11.80;84.80;;;;;;4994721;28;112750;-51
2024/03/01 05:19:13;;;;;;;22.30;10.65;;;11.80;84.90;;;;;;5006346;28;113227;-53
2024/03/01 05:21:39;;;;;;;23.73;11.32;;;11.80;84.90;;;;;;4988805;28;113209;-51
2024/03/01 05:24:05;;;;;;;20.30;10.57;;;11.70;85.40;;;;;;4989591;28;112714;-51
2024/03/01 05:26:32;;;;;;;17.23;10.50;;;11.80;85.20;;;;;;4988719;28;112805;-53
2024/03/01 05:28:59;;;;;;;22.80;10.98;;;11.80;85.00;;;;;;4988833;28;114310;-53
2024/03/01 05:31:27;;;;;;;29.20;10.82;;;11.80;84.90;;;;;;4988006;28;113319;-51
2024/03/01 05:33:52;;;;;;;22.50;10.55;;;11.80;84.90;;;;;;4980505;28;113144;-54
2024/03/01 05:36:18;;;;;;;20.02;10.65;;;11.80;84.90;;;;;;4998469;28;112813;-51
2024/03/01 05:38:43;;;;;;;27.05;10.73;;;11.80;84.90;;;;;;4990083;28;113198;-51
2024/03/01 05:41:09;;;;;;;21.52;11.82;;;11.80;85.10;;;;;;4993600;28;113050;-50
2024/03/01 05:43:35;;;;;;;20.77;11.60;;;11.70;85.10;;;;;;4994124;28;113026;-51
2024/03/01 05:46:13;;;;;;;23.38;11.23;;;11.70;85.30;;;;;;5000413;28;112702;-51
2024/03/01 05:48:39;;;;;;;21.60;10.55;;;11.70;85.20;;;;;;4987433;28;114213;-53
2024/03/01 05:51:05;;;;;;;18.40;10.07;;;11.70;85.20;;;;;;4987729;28;112661;-50
2024/03/01 05:53:30;;;;;;;20.67;10.45;;;11.80;84.90;;;;;;4989589;28;113195;-52
2024/03/01 05:55:58;;;;;;;25.08;10.77;;;11.80;84.90;;;;;;4988319;28;112730;-51
2024/03/01 05:58:24;;;;;;;16.52;10.02;;;11.80;84.80;;;;;;5003922;28;115210;-52
2024/03/01 06:00:54;;;;;;;21.92;10.25;;;11.80;84.70;;;;;;5000829;28;112887;-50
2024/03/01 06:03:21;;;;;;;20.33;10.35;;;11.80;85.00;;;;;;4988340;28;112841;-50
2024/03/01 06:05:47;;;;;;;26.50;11.20;;;11.80;84.90;;;;;;4990524;28;113122;-51
2024/03/01 06:08:12;;;;;;;20.77;10.48;;;11.80;84.90;;;;;;4988205;28;113263;-53
2024/03/01 06:10:38;;;;;;;21.77;11.13;;;11.70;84.90;;;;;;4989890;28;113620;-51
2024/03/01 06:13:04;;;;;;;16.80;11.30;;;11.90;85.00;;;;;;4995681;28;112947;-52
2024/03/01 06:15:29;;;;;;;24.80;11.63;;;11.80;84.90;;;;;;5000714;28;112815;-53
2024/03/01 06:17:55;;;;;;;20.85;11.00;;;11.80;84.80;;;;;;4995046;28;114463;-52
2024/03/01 06:20:21;;;;;;;24.75;11.20;;;11.80;84.90;;;;;;4995173;28;113889;-51
2024/03/01 06:22:46;;;;;;;20.70;11.27;;;11.80;85.20;;;;;;4988107;28;112559;-51
2024/03/01 06:31:05;;;;;;;30.58;16.23;;;12.10;84.50;;;;;;5027479;27;114036;-50
2024/03/01 06:33:31;;;;;;;22.50;11.85;;;12.10;84.30;;;;;;4991719;27;113151;-54
2024/03/01 06:35:57;;;;;;;26.92;12.35;;;12.10;84.20;;;;;;5004004;28;112798;-52
2024/03/01 06:38:22;;;;;;;26.02;12.32;;;12.10;84.30;;;;;;5013175;28;113715;-51
2024/03/01 06:40:48;;;;;;;19.40;11.82;;;12.00;84.20;;;;;;5003378;28;113017;-51
2024/03/01 06:43:15;;;;;;;19.70;11.73;;;12.00;84.50;;;;;;5002445;28;112919;-54
2024/03/01 06:45:40;;;;;;;23.33;12.32;;;12.00;84.50;;;;;;5003826;28;113285;-54
2024/03/01 06:48:06;;;;;;;21.33;11.68;;;11.90;84.60;;;;;;5002838;28;113304;-50
2024/03/01 06:50:32;;;;;;;25.38;12.50;;;12.00;84.70;;;;;;5002538;28;112866;-51
2024/03/01 06:52:58;;;;;;;19.42;11.05;;;12.00;84.60;;;;;;5003482;28;112683;-53
2024/03/01 06:55:23;;;;;;;23.10;11.75;;;12.10;84.30;;;;;;5003705;28;112674;-55
2024/03/01 06:57:49;;;;;;;24.08;11.40;;;12.10;84.40;;;;;;4987741;28;113156;-51
2024/03/01 07:00:15;;;;;;;25.38;12.40;;;12.10;84.30;;;;;;4982612;28;113237;-51
2024/03/01 07:02:41;;;;;;;24.85;12.52;;;12.00;84.60;;;;;;4994287;28;112893;-51
2024/03/01 07:05:07;;;;;;;23.52;11.70;;;12.10;84.70;;;;;;5001557;28;112675;-53
2024/03/01 07:07:32;;;;;;;23.65;10.98;;;12.10;84.70;;;;;;5000596;28;113249;-51
2024/03/01 07:09:58;;;;;;;23.38;11.35;;;12.10;84.50;;;;;;4993251;28;116067;-51
2024/03/01 07:12:24;;;;;;;19.08;10.23;;;12.00;84.20;;;;;;4985752;28;112793;-50
2024/03/01 07:14:50;;;;;;;22.27;10.75;;;12.10;84.20;;;;;;4986586;28;114068;-55
2024/03/01 07:17:16;;;;;;;22.27;10.75;;;12.20;84.10;;;;;;4987459;28;114388;-51
2024/03/01 07:19:41;;;;;;;22.40;10.85;;;12.30;83.60;;;;;;4984948;28;113078;-54
2024/03/01 07:22:07;;;;;;;19.80;10.68;;;12.20;83.80;;;;;;4983020;28;112531;-51
2024/03/01 07:24:33;;;;;;;20.38;10.52;;;12.20;83.40;;;;;;4982809;28;112793;-49
2024/03/01 07:27:01;;;;;;;20.17;11.20;;;12.20;83.50;;;;;;4982403;28;114538;-49
2024/03/01 07:29:28;;;;;;;23.48;10.52;;;12.30;83.70;;;;;;4981271;28;113578;-52
2024/03/01 07:31:54;;;;;;;23.33;11.35;;;12.30;83.50;;;;;;4982779;28;112673;-50
2024/03/01 07:34:20;;;;;;;18.58;11.30;;;12.20;83.70;;;;;;4991181;28;112719;-52
2024/03/01 07:36:45;;;;;;;26.63;10.98;;;12.30;83.70;;;;;;4987818;28;114443;-51
2024/03/01 07:39:12;;;;;;;23.13;11.43;;;12.30;83.80;;;;;;4981996;28;112641;-51
2024/03/01 07:41:37;;;;;;;19.98;11.98;;;12.30;83.60;;;;;;4972980;28;113107;-50
2024/03/01 07:44:03;;;;;;;22.88;12.95;;;12.30;83.70;;;;;;4967283;28;112937;-50
2024/03/01 07:46:29;;;;;;;23.42;12.15;;;12.40;83.60;;;;;;4966245;28;114404;-48
2024/03/01 07:48:55;;;;;;;20.90;12.63;;;12.40;83.60;;;;;;4966534;28;113218;-53
2024/03/01 07:51:20;;;;;;;23.50;12.70;;;12.40;83.60;;;;;;4967798;28;112682;-52
2024/03/01 07:53:47;;;;;;;23.70;13.25;;;12.40;83.60;;;;;;4967952;28;112900;-49
2024/03/01 07:56:14;;;;;;;24.25;12.40;;;12.40;83.60;;;;;;4967278;28;114824;-52
2024/03/01 07:58:40;;;;;;;25.25;12.00;;;12.30;84.20;;;;;;4968441;28;113006;-54
2024/03/01 08:01:07;;;;;;;24.70;12.77;;;12.20;84.30;;;;;;4969393;28;112510;-54
2024/03/01 08:03:35;;;;;;;26.42;11.95;;;12.10;84.70;;;;;;4969267;28;112692;-52
2024/03/01 08:06:00;;;;;;;30.08;12.38;;;12.10;85.00;;;;;;4968322;28;113735;-50
2024/03/01 08:08:46;;;;;;;21.52;12.57;;;12.30;84.70;;;;;;4968306;28;113166;-49
2024/03/01 08:11:16;;;;;;;25.02;12.95;;;12.30;84.60;;;;;;4969124;28;112755;-49
2024/03/01 08:13:42;;;;;;;26.55;11.57;;;12.30;84.60;;;;;;4969243;28;112724;-53
2024/03/01 08:16:10;;;;;;;22.80;11.32;;;12.30;84.60;;;;;;4967848;28;114536;-49
2024/03/01 08:18:38;;;;;;;23.52;12.27;;;12.20;84.60;;;;;;4967913;28;113844;-56
2024/03/01 08:21:07;;;;;;;23.10;11.32;;;12.20;84.90;;;;;;4968565;28;112892;-50
2024/03/01 08:23:38;;;;;;;24.35;11.32;;;12.20;85.00;;;;;;4968469;28;112883;-49
2024/03/01 08:26:09;;;;;;;19.80;10.93;;;12.20;85.00;;;;;;4966817;28;114572;-50
2024/03/01 08:28:36;;;;;;;19.63;11.82;;;12.30;84.70;;;;;;4967907;28;113817;-50
2024/03/01 08:31:04;;;;;;;24.17;11.70;;;12.20;85.10;;;;;;4968493;28;112743;-50
2024/03/01 08:33:32;;;;;;;20.40;10.57;;;12.30;85.00;;;;;;4969688;28;112708;-53
2024/03/01 08:35:58;;;;;;;22.15;10.02;;;12.10;85.30;;;;;;4987655;28;113202;-49
2024/03/01 08:38:43;;;;;;;19.90;10.38;;;12.10;85.20;;;;;;4987498;28;112458;-51
2024/03/01 08:41:10;;;;;;;29.98;11.60;;;12.40;84.70;;;;;;4976901;28;112685;-53
2024/03/01 08:43:39;;;;;;;21.10;12.18;;;12.30;84.80;;;;;;4988597;28;112646;-50
2024/03/01 08:46:05;;;;;;;19.52;10.85;;;12.20;85.40;;;;;;4987606;28;114698;-51
2024/03/01 08:48:32;;;;;;;23.92;11.48;;;12.30;85.10;;;;;;4987377;28;114331;-54
2024/03/01 08:50:59;;;;;;;22.88;11.45;;;12.20;84.80;;;;;;4988128;28;112797;-49
2024/03/01 08:53:40;;;;;;;24.85;12.80;;;12.20;84.80;;;;;;4987629;28;114749;-49
2024/03/01 08:56:17;;;;;;;21.95;11.85;;;12.30;84.80;;;;;;4987406;28;113311;-59
2024/03/01 08:58:43;;;;;;;23.98;13.38;;;12.20;85.10;;;;;;4987633;28;113082;-50
2024/03/01 09:01:35;;;;;;;21.45;11.80;;;12.20;85.20;;;;;;4988077;28;112858;-53
2024/03/01 09:04:31;;;;;;;21.73;13.13;;;12.20;84.80;;;;;;4965116;28;112794;-50
2024/03/01 09:07:09;;;;;;;24.38;14.63;;;12.30;84.30;;;;;;4925410;28;114547;-50
2024/03/01 09:09:35;;;;;;;22.33;14.60;;;12.30;84.70;;;;;;4925559;28;113067;-49
2024/03/01 09:12:01;;;;;;;27.05;15.57;;;12.40;84.60;;;;;;4926531;28;112778;-49
2024/03/01 09:14:31;;;;;;;30.58;16.90;;;12.30;84.30;;;;;;4926585;28;112768;-50
2024/03/01 09:16:59;;;;;;;22.90;17.02;;;12.30;84.40;;;;;;4925641;28;113901;-49
2024/03/01 09:19:26;;;;;;;27.75;18.17;;;12.40;84.40;;;;;;4925718;28;112855;-50
2024/03/01 09:21:51;;;;;;;28.95;20.33;;;12.40;84.10;;;;;;4926571;28;113038;-50
2024/03/01 09:24:18;;;;;;;26.35;20.00;;;12.30;84.60;;;;;;4926701;28;112858;-51
2024/03/01 09:26:46;;;;;;;29.05;20.17;;;12.30;84.90;;;;;;4925937;28;113896;-51
2024/03/01 09:29:44;;;;;;;28.80;21.95;;;12.40;84.80;;;;;;4908774;28;114027;-50
2024/03/01 09:32:10;;;;;;;32.58;23.20;;;12.40;84.80;;;;;;4926412;28;112820;-52
2024/03/01 09:34:37;;;;;;;30.90;22.50;;;12.30;85.00;;;;;;4926384;28;112952;-50
2024/03/01 09:37:07;;;;;;;30.00;24.23;;;12.30;85.40;;;;;;4925320;28;113381;-49
2024/03/01 09:39:34;;;;;;;32.10;24.45;;;12.20;86.00;;;;;;4925382;28;113921;-50
2024/03/01 09:42:28;;;;;;;29.70;22.67;;;12.30;85.80;;;;;;4910079;28;113206;-51
2024/03/01 09:44:54;;;;;;;29.95;23.75;;;12.30;85.30;;;;;;4978610;28;112678;-51
2024/03/01 09:47:46;;;;;;;31.45;24.55;;;12.30;86.00;;;;;;4986696;28;113108;-49
2024/03/01 09:50:24;;;;;;;33.20;26.00;;;12.40;85.80;;;;;;4964565;28;113714;-49
2024/03/01 09:53:24;;;;;;;31.27;24.70;;;12.40;85.90;;;;;;4973798;28;112675;-54
2024/03/01 09:56:13;;;;;;;33.90;24.63;;;12.30;85.60;;;;;;4985781;28;113837;-49
2024/03/01 09:58:48;;;;;;;30.38;26.10;;;12.30;85.90;;;;;;4986640;28;113429;-49
2024/03/01 10:01:19;;;;;;;29.50;25.05;;;12.30;85.90;;;;;;4986492;28;112595;-50
2024/03/01 10:04:07;;;;;;;34.40;26.85;;;12.40;86.00;;;;;;4987304;28;112741;-49
2024/03/01 10:07:10;;;;;;;32.40;25.33;;;12.50;85.80;;;;;;4974852;28;112593;-49
2024/03/01 10:09:57;;;;;;;31.23;26.23;;;12.50;85.60;;;;;;4986337;28;113825;-49
2024/03/01 10:12:37;;;;;;;31.17;27.15;;;12.80;85.70;;;;;;4986440;28;112809;-50
2024/03/01 10:15:07;;;;;;;31.92;26.45;;;12.90;85.10;;;;;;4974410;28;112607;-50
2024/03/01 10:17:50;;;;;;;32.83;27.25;;;12.90;85.10;;;;;;4987194;28;112744;-50
2024/03/01 10:20:34;;;;;;;31.95;26.75;;;12.90;85.00;;;;;;4974520;28;113467;-51
2024/03/01 10:23:23;;;;;;;32.78;26.50;;;12.70;85.50;;;;;;4985860;28;114291;-53
2024/03/01 10:25:58;;;;;;;35.30;27.10;;;12.80;85.70;;;;;;4987609;28;112860;-51
2024/03/01 10:28:48;;;;;;;34.55;26.08;;;12.80;85.40;;;;;;4986986;28;112629;-51
2024/03/01 10:31:46;;;;;;;33.58;27.50;;;12.70;85.70;;;;;;4985917;28;114053;-50
2024/03/01 10:34:27;;;;;;;33.72;27.20;;;12.80;85.70;;;;;;4973081;28;113001;-52
2024/03/01 10:36:54;;;;;;;33.08;27.45;;;12.80;85.60;;;;;;4986608;28;112815;-50
2024/03/01 10:39:30;;;;;;;36.60;28.20;;;12.70;85.60;;;;;;4987125;28;112656;-51
2024/03/01 10:42:08;;;;;;;37.80;28.30;;;12.80;85.60;;;;;;4986004;28;113229;-50
2024/03/01 10:44:47;;;;;;;31.38;26.30;;;12.70;85.80;;;;;;4985972;28;113816;-49
2024/03/01 10:47:16;;;;;;;36.15;25.92;;;12.70;85.70;;;;;;4986569;28;112565;-49
2024/03/01 10:50:18;;;;;;;31.48;25.77;;;12.60;85.60;;;;;;4986807;28;112719;-57
2024/03/01 10:52:48;;;;;;;32.67;27.13;;;12.50;86.20;;;;;;4985680;28;113494;-53
2024/03/01 10:55:24;;;;;;;30.17;26.95;;;12.50;86.20;;;;;;4985925;28;112899;-51
2024/03/01 10:57:58;;;;;;;36.83;27.42;;;12.50;86.50;;;;;;4986864;28;113009;-53
2024/03/01 11:00:26;;;;;;;31.65;26.08;;;12.70;86.20;;;;;;4985270;28;112906;-49
2024/03/01 11:03:04;;;;;;;33.40;27.45;;;12.60;86.20;;;;;;4985403;28;114579;-50
2024/03/01 11:05:43;;;;;;;30.38;24.98;;;12.80;86.30;;;;;;4985480;28;114031;-50
2024/03/01 11:08:34;;;;;;;29.40;25.80;;;12.90;85.80;;;;;;4973241;28;112815;-50
2024/03/01 11:11:19;;;;;;;33.55;25.52;;;12.80;85.80;;;;;;4986694;28;112761;-51
2024/03/01 11:13:47;;;;;;;30.95;26.95;;;12.90;85.80;;;;;;4985838;28;113574;-49
2024/03/01 11:16:15;;;;;;;32.08;26.17;;;12.90;86.10;;;;;;4986417;28;113038;-49
2024/03/01 11:18:45;;;;;;;29.05;25.25;;;13.00;85.80;;;;;;4990105;28;113107;-49
2024/03/01 11:21:16;;;;;;;27.88;24.95;;;13.10;85.50;;;;;;4990174;28;112799;-52
2024/03/01 11:24:10;;;;;;;31.00;24.60;;;13.20;85.50;;;;;;4989119;28;113180;-52
2024/03/01 11:26:44;;;;;;;28.23;23.20;;;13.30;85.20;;;;;;4972866;28;115603;-49
2024/03/01 11:29:32;;;;;;;28.85;24.10;;;13.40;84.60;;;;;;4989673;28;113066;-51
2024/03/01 11:32:14;;;;;;;26.15;23.23;;;13.70;84.00;;;;;;4971308;28;112847;-51
2024/03/01 11:34:42;;;;;;;;;;;13.70;83.70;;;;;;4979952;28;114545;-51
2024/03/01 11:37:24;;;;;;;26.98;21.13;;;13.80;83.80;;;;;;4990562;28;113847;-49
2024/03/01 11:40:11;;;;;;;25.33;20.70;;;13.70;83.20;;;;;;4989834;28;112523;-49
2024/03/01 11:42:46;;;;;;;24.60;21.50;;;13.70;83.40;;;;;;4976012;28;112632;-50
2024/03/01 11:45:37;;;;;;;27.13;20.10;;;13.80;83.70;;;;;;4987057;28;117208;-50
2024/03/01 11:48:22;;;;;;;27.23;20.10;;;13.80;83.40;;;;;;4977719;28;113402;-51
2024/03/01 11:50:57;;;;;;;23.77;20.73;;;13.60;83.20;;;;;;4989423;28;112835;-52
2024/03/01 11:53:45;;;;;;;25.63;20.58;;;13.50;83.30;;;;;;4989577;28;112520;-49
2024/03/01 11:56:11;;;;;;;27.48;22.45;;;13.50;83.20;;;;;;4988328;28;113271;-49
2024/03/01 11:58:43;;;;;;;28.15;22.75;;;13.40;83.70;;;;;;4988514;28;112815;-50
2024/03/01 12:01:12;;;;;;;31.75;25.80;;;13.50;84.50;;;;;;4989335;28;112908;-50
2024/03/01 12:03:44;;;;;;;30.58;22.58;;;13.60;84.70;;;;;;4989189;28;113113;-50
2024/03/01 12:06:13;;;;;;;25.80;21.95;;;13.60;84.50;;;;;;4987881;28;114640;-51
2024/03/01 12:09:00;;;;;;;26.40;20.75;;;13.60;84.90;;;;;;4987839;28;113130;-50
2024/03/01 12:11:59;;;;;;;22.77;18.92;;;13.40;84.20;;;;;;4989266;28;112789;-51
2024/03/01 12:14:31;;;;;;;24.75;20.60;;;13.30;84.30;;;;;;4989068;28;112709;-49
2024/03/01 12:17:07;;;;;;;23.50;20.00;;;13.30;84.90;;;;;;4988069;28;113259;-49
2024/03/01 12:19:33;;;;;;;24.75;21.38;;;13.40;85.20;;;;;;4988183;28;113045;-49
2024/03/01 12:22:22;;;;;;;26.92;21.38;;;13.40;84.90;;;;;;4988793;28;112716;-51
2024/03/01 12:24:49;;;;;;;25.38;20.48;;;13.30;84.90;;;;;;4989080;28;112646;-50
2024/03/01 12:27:31;;;;;;;24.60;19.67;;;13.40;84.70;;;;;;4988338;28;114493;-51
2024/03/01 12:30:31;;;;;;;22.08;17.58;;;13.30;84.90;;;;;;4987130;28;113835;-49
2024/03/01 12:33:22;;;;;;;20.98;16.98;;;13.40;84.20;;;;;;4978533;28;112626;-51
2024/03/01 12:36:15;;;;;;;21.33;18.20;;;13.50;84.30;;;;;;4974813;28;112579;-50
2024/03/01 12:38:49;;;;;;;19.55;16.17;;;13.50;83.80;;;;;;4987481;28;114477;-49